sensor_id;sensor_type;location;lat;lon;timestamp;P1;durP1;ratioP1;P2;durP2;ratioP2
63089;SDS011;49174;43.198;27.824;2022-12-16T04:05:28;25.00;;;17.05;;
63089;SDS011;49174;43.198;27.824;2022-12-16T04:07:54;27.13;;;16.25;;
63089;SDS011;49174;43.198;27.824;2022-12-16T04:10:19;27.13;;;15.88;;
63089;SDS011;49174;43.198;27.824;2022-12-16T04:13:06;24.27;;;15.00;;
63089;SDS011;49174;43.198;27.824;2022-12-16T04:15:54;32.85;;;20.17;;
63089;SDS011;49174;43.198;27.824;2022-12-16T04:18:39;30.38;;;19.23;;
63089;SDS011;49174;43.198;27.824;2022-12-16T04:21:24;37.60;;;22.05;;
63089;SDS011;49174;43.198;27.824;2022-12-16T04:24:11;34.67;;;21.13;;
63089;SDS011;49174;43.198;27.824;2022-12-16T04:26:43;28.35;;;17.38;;
63089;SDS011;49174;43.198;27.824;2022-12-16T04:31:53;35.55;;;21.38;;
63089;SDS011;49174;43.198;27.824;2022-12-16T04:34:20;27.27;;;16.50;;
63089;SDS011;49174;43.198;27.824;2022-12-16T04:36:56;29.73;;;17.98;;
63089;SDS011;49174;43.198;27.824;2022-12-16T04:39:42;24.48;;;14.65;;
63089;SDS011;49174;43.198;27.824;2022-12-16T04:42:26;25.25;;;16.13;;
63089;SDS011;49174;43.198;27.824;2022-12-16T04:48:04;23.10;;;13.88;;
63089;SDS011;49174;43.198;27.824;2022-12-16T04:50:48;25.50;;;15.43;;
63089;SDS011;49174;43.198;27.824;2022-12-16T04:53:33;30.40;;;15.35;;
63089;SDS011;49174;43.198;27.824;2022-12-16T04:56:18;22.10;;;15.07;;
63089;SDS011;49174;43.198;27.824;2022-12-16T04:59:02;20.75;;;14.50;;
63089;SDS011;49174;43.198;27.824;2022-12-16T05:01:46;24.80;;;14.13;;
63089;SDS011;49174;43.198;27.824;2022-12-16T05:04:30;22.00;;;14.15;;
63089;SDS011;49174;43.198;27.824;2022-12-16T05:07:16;18.63;;;12.23;;
63089;SDS011;49174;43.198;27.824;2022-12-16T05:10:10;17.98;;;10.52;;
63089;SDS011;49174;43.198;27.824;2022-12-16T05:12:55;16.75;;;10.60;;
63089;SDS011;49174;43.198;27.824;2022-12-16T05:15:39;15.20;;;8.73;;
63089;SDS011;49174;43.198;27.824;2022-12-16T05:18:25;15.73;;;9.70;;
63089;SDS011;49174;43.198;27.824;2022-12-16T05:21:09;12.95;;;8.68;;
63089;SDS011;49174;43.198;27.824;2022-12-16T05:23:54;18.58;;;8.52;;
63089;SDS011;49174;43.198;27.824;2022-12-16T05:26:38;14.82;;;10.00;;
63089;SDS011;49174;43.198;27.824;2022-12-16T05:29:22;14.23;;;9.23;;
63089;SDS011;49174;43.198;27.824;2022-12-16T05:32:07;20.35;;;11.68;;
63089;SDS011;49174;43.198;27.824;2022-12-16T05:34:51;15.95;;;8.40;;
63089;SDS011;49174;43.198;27.824;2022-12-16T05:37:43;14.52;;;9.52;;
63089;SDS011;49174;43.198;27.824;2022-12-16T05:40:27;16.58;;;9.52;;
63089;SDS011;49174;43.198;27.824;2022-12-16T05:43:19;13.70;;;10.05;;
63089;SDS011;49174;43.198;27.824;2022-12-16T05:46:03;16.75;;;14.18;;
63089;SDS011;49174;43.198;27.824;2022-12-16T05:49:01;13.13;;;9.95;;
63089;SDS011;49174;43.198;27.824;2022-12-16T05:51:46;13.20;;;8.68;;
63089;SDS011;49174;43.198;27.824;2022-12-16T05:54:30;15.55;;;8.80;;
63089;SDS011;49174;43.198;27.824;2022-12-16T05:57:14;9.63;;;6.80;;
63089;SDS011;49174;43.198;27.824;2022-12-16T05:59:58;15.32;;;10.15;;
63089;SDS011;49174;43.198;27.824;2022-12-16T06:02:42;25.77;;;16.40;;
63089;SDS011;49174;43.198;27.824;2022-12-16T06:05:27;14.55;;;9.60;;
63089;SDS011;49174;43.198;27.824;2022-12-16T06:08:11;18.42;;;11.90;;
63089;SDS011;49174;43.198;27.824;2022-12-16T06:10:55;9.98;;;6.57;;
63089;SDS011;49174;43.198;27.824;2022-12-16T06:13:39;8.47;;;6.17;;
63089;SDS011;49174;43.198;27.824;2022-12-16T06:16:25;7.70;;;5.35;;
63089;SDS011;49174;43.198;27.824;2022-12-16T06:19:17;8.35;;;5.57;;
63089;SDS011;49174;43.198;27.824;2022-12-16T06:22:01;10.48;;;5.78;;
63089;SDS011;49174;43.198;27.824;2022-12-16T06:24:45;8.43;;;5.87;;
63089;SDS011;49174;43.198;27.824;2022-12-16T06:27:29;5.85;;;4.35;;
63089;SDS011;49174;43.198;27.824;2022-12-16T06:30:13;5.90;;;4.30;;
63089;SDS011;49174;43.198;27.824;2022-12-16T06:32:58;4.95;;;3.97;;
63089;SDS011;49174;43.198;27.824;2022-12-16T06:35:41;5.83;;;3.77;;
63089;SDS011;49174;43.198;27.824;2022-12-16T06:38:26;5.60;;;3.88;;
63089;SDS011;49174;43.198;27.824;2022-12-16T06:41:10;6.05;;;4.03;;
63089;SDS011;49174;43.198;27.824;2022-12-16T06:43:54;11.15;;;7.30;;
63089;SDS011;49174;43.198;27.824;2022-12-16T06:46:39;14.88;;;7.40;;
63089;SDS011;49174;43.198;27.824;2022-12-16T06:49:23;6.90;;;3.83;;
63089;SDS011;49174;43.198;27.824;2022-12-16T06:52:07;6.80;;;4.47;;
63089;SDS011;49174;43.198;27.824;2022-12-16T13:00:39;8.30;;;5.27;;
63089;SDS011;49174;43.198;27.824;2022-12-16T13:12:35;5.93;;;3.92;;
63089;SDS011;49174;43.198;27.824;2022-12-16T14:26:20;11.32;;;5.47;;
63089;SDS011;49174;43.198;27.824;2022-12-16T14:29:42;8.98;;;4.30;;
63089;SDS011;49174;43.198;27.824;2022-12-16T14:42:38;24.25;;;15.77;;
63089;SDS011;49174;43.198;27.824;2022-12-16T14:46:37;12.77;;;7.72;;
63089;SDS011;49174;43.198;27.824;2022-12-16T14:55:54;10.00;;;4.50;;
63089;SDS011;49174;43.198;27.824;2022-12-16T15:42:51;17.27;;;10.02;;
63089;SDS011;49174;43.198;27.824;2022-12-16T16:08:33;20.90;;;12.52;;
63089;SDS011;49174;43.198;27.824;2022-12-16T16:17:21;16.05;;;10.27;;
63089;SDS011;49174;43.198;27.824;2022-12-16T17:19:05;33.40;;;18.95;;
63089;SDS011;49174;43.198;27.824;2022-12-16T17:21:49;34.75;;;20.20;;
63089;SDS011;49174;43.198;27.824;2022-12-16T17:24:33;41.55;;;27.50;;
63089;SDS011;49174;43.198;27.824;2022-12-16T17:33:02;40.53;;;21.33;;
63089;SDS011;49174;43.198;27.824;2022-12-16T17:35:47;34.17;;;19.20;;
63089;SDS011;49174;43.198;27.824;2022-12-16T17:38:39;33.90;;;19.90;;
63089;SDS011;49174;43.198;27.824;2022-12-16T17:41:28;30.42;;;18.38;;
63089;SDS011;49174;43.198;27.824;2022-12-16T18:24:32;42.00;;;25.83;;
63089;SDS011;49174;43.198;27.824;2022-12-16T18:30:01;42.70;;;22.30;;
63089;SDS011;49174;43.198;27.824;2022-12-16T19:28:23;40.00;;;23.05;;
63089;SDS011;49174;43.198;27.824;2022-12-16T20:33:10;47.92;;;31.95;;
63089;SDS011;49174;43.198;27.824;2022-12-16T20:35:57;39.83;;;27.27;;
63089;SDS011;49174;43.198;27.824;2022-12-16T21:16:32;29.58;;;20.60;;
63089;SDS011;49174;43.198;27.824;2022-12-16T21:19:18;45.33;;;23.65;;
63089;SDS011;49174;43.198;27.824;2022-12-16T21:32:57;37.70;;;24.30;;
63089;SDS011;49174;43.198;27.824;2022-12-16T21:38:58;35.50;;;22.60;;
63089;SDS011;49174;43.198;27.824;2022-12-16T21:55:40;26.88;;;18.13;;
63089;SDS011;49174;43.198;27.824;2022-12-16T21:58:32;31.00;;;16.83;;
63089;SDS011;49174;43.198;27.824;2022-12-16T22:04:00;22.63;;;15.18;;
63089;SDS011;49174;43.198;27.824;2022-12-16T22:09:27;18.50;;;13.07;;
63089;SDS011;49174;43.198;27.824;2022-12-16T22:12:11;23.05;;;13.20;;
63089;SDS011;49174;43.198;27.824;2022-12-16T22:20:19;18.55;;;11.10;;
63089;SDS011;49174;43.198;27.824;2022-12-16T22:23:03;16.75;;;10.88;;
63089;SDS011;49174;43.198;27.824;2022-12-16T22:25:53;18.23;;;11.93;;
63089;SDS011;49174;43.198;27.824;2022-12-16T22:28:39;24.00;;;15.05;;
63089;SDS011;49174;43.198;27.824;2022-12-16T22:31:23;32.45;;;19.20;;
63089;SDS011;49174;43.198;27.824;2022-12-16T22:34:08;36.08;;;17.05;;
63089;SDS011;49174;43.198;27.824;2022-12-16T22:36:52;31.23;;;17.90;;
63089;SDS011;49174;43.198;27.824;2022-12-16T22:39:36;25.67;;;16.52;;
63089;SDS011;49174;43.198;27.824;2022-12-16T22:42:22;29.65;;;16.02;;
63089;SDS011;49174;43.198;27.824;2022-12-16T22:45:06;29.88;;;15.90;;
63089;SDS011;49174;43.198;27.824;2022-12-16T22:47:50;20.30;;;14.43;;
63089;SDS011;49174;43.198;27.824;2022-12-16T22:50:35;23.17;;;14.00;;
63089;SDS011;49174;43.198;27.824;2022-12-16T22:53:21;22.75;;;15.98;;
63089;SDS011;49174;43.198;27.824;2022-12-16T22:56:05;26.50;;;17.27;;
63089;SDS011;49174;43.198;27.824;2022-12-16T22:58:49;24.48;;;15.10;;
63089;SDS011;49174;43.198;27.824;2022-12-16T23:01:34;26.10;;;14.00;;
63089;SDS011;49174;43.198;27.824;2022-12-16T23:04:18;16.75;;;11.98;;
63089;SDS011;49174;43.198;27.824;2022-12-16T23:07:02;16.52;;;10.80;;
63089;SDS011;49174;43.198;27.824;2022-12-16T23:09:47;15.05;;;10.57;;
63089;SDS011;49174;43.198;27.824;2022-12-16T23:12:31;17.55;;;10.95;;
63089;SDS011;49174;43.198;27.824;2022-12-16T23:15:15;17.88;;;11.00;;
63089;SDS011;49174;43.198;27.824;2022-12-16T23:18:00;19.17;;;10.80;;
63089;SDS011;49174;43.198;27.824;2022-12-16T23:20:45;14.20;;;10.05;;
63089;SDS011;49174;43.198;27.824;2022-12-16T23:23:32;17.08;;;10.20;;
63089;SDS011;49174;43.198;27.824;2022-12-16T23:26:16;13.70;;;9.60;;
63089;SDS011;49174;43.198;27.824;2022-12-16T23:29:01;16.77;;;10.35;;
63089;SDS011;49174;43.198;27.824;2022-12-16T23:31:45;17.55;;;10.10;;
63089;SDS011;49174;43.198;27.824;2022-12-16T23:34:29;19.92;;;10.00;;
63089;SDS011;49174;43.198;27.824;2022-12-16T23:37:14;16.73;;;9.55;;
63089;SDS011;49174;43.198;27.824;2022-12-16T23:39:58;21.90;;;14.10;;
63089;SDS011;49174;43.198;27.824;2022-12-16T23:42:43;20.90;;;11.93;;
63089;SDS011;49174;43.198;27.824;2022-12-16T23:45:27;15.70;;;10.15;;
63089;SDS011;49174;43.198;27.824;2022-12-16T23:48:11;21.75;;;12.65;;
63089;SDS011;49174;43.198;27.824;2022-12-16T23:50:56;34.53;;;18.90;;
63089;SDS011;49174;43.198;27.824;2022-12-16T23:53:40;31.17;;;16.95;;
63089;SDS011;49174;43.198;27.824;2022-12-16T23:56:24;24.48;;;17.35;;
63089;SDS011;49174;43.198;27.824;2022-12-16T23:59:09;24.20;;;15.85;;
